KUCY/UCY METAR and TAF weather

Enter ICAO airport designator
Station Type Date Time Source
KUCY METAR 2019/12/06 08:55 UTC NOAA

KUCY 060855Z AUTO 14005KT 10SM OVC090 10/04 A3004 RMK A01


Station Type Date Time Source
KUCY Decoded METAR 2019/12/06 08:55 UTC NOAA

Station name not available
Dec 06, 2019 - 03:55 AM EST / 2019.12.06 0855 UTC
Wind: from the SE (140 degrees) at 6 MPH (5 KT):0
Visibility: 10 mile(s):0
Sky conditions: overcast
Temperature: 50 F (10 C)
Dew Point: 39 F (4 C)
Relative Humidity: 66%
Pressure (altimeter): 30.04 in. Hg (1017 hPa)
ob: KUCY 060855Z AUTO 14005KT 10SM OVC090 10/04 A3004 RMK A01
cycle: 9

Station Type Date Time Source
KUCY TAF UTC NOAA

Error!

Example: see airport list